Time;durP1;ratioP1;P1;durP2;ratioP2;P2;SDS_P1;SDS_P2;PMS_P1;PMS_P2;Temp;Humidity;BMP_temperature;BMP_pressure;BME280_temperature;BME280_humidity;BME280_pressure;Samples;Min_cycle;Max_cycle;Signal;HPM_P1;HPM_P2
2021/12/20 00:01:13;;;;;;;;;1.00;1.00;;;;;6.63;89.16;100852.75;5092744;28;8929;-63
2021/12/20 00:03:40;;;;;;;;;0.80;0.80;;;;;6.65;89.16;100858.81;5093030;28;8852;-63
2021/12/20 00:06:08;;;;;;;;;1.00;1.00;;;;;6.64;89.35;100849.19;5092522;28;9174;-63
2021/12/20 00:08:36;;;;;;;;;3.20;2.60;;;;;6.64;89.14;100854.47;5092692;28;8837;-63
2021/12/20 00:11:03;;;;;;;;;3.00;1.40;;;;;6.63;89.05;100843.03;5092789;28;8964;-63
2021/12/20 00:13:31;;;;;;;;;1.00;1.00;;;;;6.63;89.36;100842.16;5093188;28;8837;-63
2021/12/20 00:15:59;;;;;;;;;1.00;0.75;;;;;6.62;88.93;100830.75;5093276;28;8863;-63
2021/12/20 00:18:27;;;;;;;;;1.80;1.80;;;;;6.60;89.61;100837.03;5093252;28;8984;-63
2021/12/20 00:20:55;;;;;;;;;1.80;1.80;;;;;6.59;89.04;100837.97;5092182;28;8852;-63
2021/12/20 00:23:24;;;;;;;;;1.00;1.00;;;;;6.60;89.02;100839.69;5092715;28;8880;-63
2021/12/20 00:25:52;;;;;;;;;0.00;0.00;;;;;6.60;89.61;100831.75;5092345;28;8867;-63
2021/12/20 00:28:20;;;;;;;;;0.00;0.00;;;;;6.59;89.13;100832.69;5092886;28;8975;-63
2021/12/20 00:30:47;;;;;;;;;1.00;1.00;;;;;6.60;89.23;100831.75;5092670;28;8845;-63
2021/12/20 00:33:16;;;;;;;;;1.00;1.00;;;;;6.59;88.66;100827.41;5091559;28;8871;-63
2021/12/20 00:35:44;;;;;;;;;0.25;0.25;;;;;6.58;89.35;100831.81;5092398;28;8869;-63
2021/12/20 00:40:56;;;;;;;;;0.60;0.60;;;;;6.55;88.88;100831.09;5090827;28;8856;-63
2021/12/20 00:43:24;;;;;;;;;0.00;0.00;;;;;6.53;89.60;100830.34;5092957;28;8849;-63
2021/12/20 00:45:52;;;;;;;;;2.20;2.20;;;;;6.52;89.19;100836.56;5092328;28;8871;-64
2021/12/20 00:48:20;;;;;;;;;1.00;1.00;;;;;6.50;89.27;100839.28;5092676;28;8855;-63
2021/12/20 00:50:48;;;;;;;;;2.60;2.60;;;;;6.49;89.37;100832.28;5090780;28;9925;-63
2021/12/20 00:53:15;;;;;;;;;0.80;0.40;;;;;6.47;89.46;100836.78;5093353;28;8863;-63
2021/12/20 00:55:44;;;;;;;;;0.60;0.60;;;;;6.45;89.45;100835.97;5091977;28;9560;-63
2021/12/20 00:58:11;;;;;;;;;1.00;0.00;;;;;6.46;89.13;100836.84;5091531;28;8848;-63
2021/12/20 01:00:39;;;;;;;;;0.00;0.00;;;;;6.45;89.17;100835.97;5090003;28;8853;-63
2021/12/20 01:03:07;;;;;;;;;0.80;0.80;;;;;6.46;89.07;100836.84;5091529;28;8837;-64
2021/12/20 01:05:35;;;;;;;;;0.40;0.40;;;;;6.45;88.74;100843.91;5091224;28;8902;-63
2021/12/20 01:08:04;;;;;;;;;0.00;0.00;;;;;6.44;88.90;100850.16;5092097;28;8844;-63
2021/12/20 01:10:32;;;;;;;;;0.00;0.00;;;;;6.43;89.02;100852.84;5089043;28;8984;-63
2021/12/20 01:13:01;;;;;;;;;0.00;0.00;;;;;6.43;88.86;100852.84;5091565;28;8848;-64
2021/12/20 01:15:31;;;;;;;;;1.00;1.00;;;;;6.41;89.03;100849.44;5090294;28;8841;-63
2021/12/20 01:17:58;;;;;;;;;0.00;0.00;;;;;6.40;88.99;100837.16;5090186;28;8849;-63
2021/12/20 01:20:26;;;;;;;;;0.50;0.50;;;;;6.39;89.61;100851.31;5090648;28;8875;-63
2021/12/20 01:22:54;;;;;;;;;0.00;0.00;;;;;6.38;89.34;100844.31;5090484;28;9135;-63
2021/12/20 01:25:22;;;;;;;;;0.80;0.80;;;;;6.38;88.92;100844.31;5089672;28;8837;-64
2021/12/20 01:27:49;;;;;;;;;0.00;0.00;;;;;6.37;88.83;100848.72;5090506;28;8841;-64
2021/12/20 01:30:17;;;;;;;;;0.00;0.00;;;;;6.36;89.20;100857.59;5090800;28;8882;-63
2021/12/20 01:32:45;;;;;;;;;0.60;0.60;;;;;6.36;88.81;100852.31;5089948;28;8880;-63
2021/12/20 01:35:12;;;;;;;;;0.00;0.00;;;;;6.32;88.85;100850.75;5089776;28;8875;-64
2021/12/20 01:37:40;;;;;;;;;1.40;0.80;;;;;6.31;89.15;100862.25;5089414;28;8869;-63
2021/12/20 01:40:08;;;;;;;;;0.40;0.40;;;;;6.31;89.02;100858.75;5090866;28;8963;-64
2021/12/20 01:42:36;;;;;;;;;0.00;0.00;;;;;6.31;89.20;100853.47;5091184;28;8847;-63
2021/12/20 01:45:04;;;;;;;;;0.00;0.00;;;;;6.30;88.74;100851.75;5090991;28;8865;-63
2021/12/20 01:47:35;;;;;;;;;0.75;0.00;;;;;6.29;88.73;100858.81;5091297;28;8852;-63
2021/12/20 01:50:07;;;;;;;;;0.00;0.00;;;;;6.29;89.06;100860.63;5090468;28;8879;-63
2021/12/20 01:52:40;;;;;;;;;1.00;1.00;;;;;6.29;88.97;100853.53;5091478;28;8873;-63
2021/12/20 01:55:08;;;;;;;;;0.25;0.00;;;;;6.28;89.21;100853.59;5090286;28;8852;-63
2021/12/20 01:57:35;;;;;;;;;0.00;0.00;;;;;6.29;88.95;100853.53;5089796;28;8886;-63
2021/12/20 02:00:03;;;;;;;;;0.00;0.00;;;;;6.32;89.15;100863.09;5090129;28;8934;-63
2021/12/20 02:02:31;;;;;;;;;0.00;0.00;;;;;6.33;89.15;100855.13;5088790;28;8833;-63
2021/12/20 02:05:06;;;;;;;;;0.00;0.00;;;;;6.34;88.91;100853.31;5090194;28;8853;-63
2021/12/20 02:07:48;;;;;;;;;0.00;0.00;;;;;6.34;88.58;100854.19;5090082;28;8891;-63
2021/12/20 02:10:15;;;;;;;;;1.00;0.00;;;;;6.36;88.72;100856.75;5089806;28;8845;-64
2021/12/20 02:12:43;;;;;;;;;1.00;1.00;;;;;6.38;88.39;100852.25;5089790;28;8859;-65
2021/12/20 02:15:11;;;;;;;;;0.20;0.00;;;;;6.37;88.65;100853.19;5090781;28;8856;-66
2021/12/20 02:17:39;;;;;;;;;0.20;0.20;;;;;6.37;88.80;100859.31;5090520;28;8975;-64
2021/12/20 02:20:06;;;;;;;;;0.00;0.00;;;;;6.38;88.83;100860.19;5090279;28;8872;-64
2021/12/20 02:22:34;;;;;;;;;1.00;1.00;;;;;6.38;88.53;100860.19;5091041;28;8883;-63
2021/12/20 02:25:02;;;;;;;;;2.20;1.40;;;;;6.36;88.76;100865.53;5089381;28;8853;-63
2021/12/20 02:27:30;;;;;;;;;3.00;1.00;;;;;6.35;88.52;100862.94;5089799;28;8875;-63
2021/12/20 02:30:05;;;;;;;;;1.00;1.00;;;;;6.34;88.89;100855.94;5089396;28;8864;-63
2021/12/20 02:38:03;;;;;;;;;1.00;0.40;;;;;6.32;88.91;100850.75;5090419;28;8964;-64
2021/12/20 02:40:32;;;;;;;;;0.20;0.00;;;;;6.32;88.68;100849.88;5088185;28;8853;-63
2021/12/20 02:43:00;;;;;;;;;0.00;0.00;;;;;6.31;88.63;100843.72;5089699;28;8973;-63
2021/12/20 02:45:32;;;;;;;;;0.25;0.25;;;;;6.30;88.77;100841.19;5088551;28;8857;-63
2021/12/20 02:47:59;;;;;;;;;0.00;0.00;;;;;6.29;88.47;100842.94;5090186;28;8853;-63
2021/12/20 02:50:27;;;;;;;;;0.80;0.80;;;;;6.28;88.75;100846.53;5089612;28;8868;-63
2021/12/20 02:52:55;;;;;;;;;0.20;0.20;;;;;6.27;88.87;100846.59;5090238;28;8941;-63
2021/12/20 02:55:22;;;;;;;;;1.00;0.20;;;;;6.27;89.13;100857.16;5089575;28;8849;-63
2021/12/20 02:57:50;;;;;;;;;3.00;3.00;;;;;6.25;88.74;100857.25;5090226;28;8845;-63
2021/12/20 03:00:18;;;;;;;;;0.50;0.25;;;;;6.26;88.85;100847.53;5087891;28;8979;-64
2021/12/20 03:02:46;;;;;;;;;0.80;0.80;;;;;6.26;88.97;100850.16;5089383;28;9291;-63
2021/12/20 03:05:13;;;;;;;;;0.00;0.00;;;;;6.26;88.79;100855.47;5088661;28;8998;-63
2021/12/20 03:07:46;;;;;;;;;0.00;0.00;;;;;6.25;88.79;100853.75;5088974;28;8849;-63
2021/12/20 03:10:14;;;;;;;;;0.00;0.00;;;;;6.25;88.46;100856.41;5087743;28;8857;-63
2021/12/20 03:12:42;;;;;;;;;1.00;1.00;;;;;6.24;88.43;100852.91;5088322;28;9397;-63
2021/12/20 03:15:13;;;;;;;;;0.00;0.00;;;;;6.25;88.71;100846.69;5088234;28;8861;-63
2021/12/20 03:17:41;;;;;;;;;0.60;0.60;;;;;6.27;88.40;100846.59;5088520;28;8845;-63
2021/12/20 03:20:09;;;;;;;;;3.60;0.80;;;;;6.27;88.77;100838.66;5088807;28;8849;-63
2021/12/20 03:22:37;;;;;;;;;3.20;3.20;;;;;6.29;88.52;100844.75;5089806;28;8845;-64
2021/12/20 03:25:04;;;;;;;;;0.00;0.00;;;;;6.29;88.43;100847.41;5088396;28;9185;-63
2021/12/20 03:27:32;;;;;;;;;0.00;0.00;;;;;6.26;88.15;100845.75;5088635;28;8845;-63
2021/12/20 03:30:00;;;;;;;;;1.40;1.40;;;;;6.27;88.18;100851.88;5089327;28;8863;-63
2021/12/20 03:32:28;;;;;;;;;1.00;1.00;;;;;6.26;88.34;100844.88;5087992;28;8852;-63
2021/12/20 03:34:55;;;;;;;;;1.00;1.00;;;;;6.25;88.49;100849.34;5088107;28;8897;-63
2021/12/20 03:37:23;;;;;;;;;0.20;0.20;;;;;6.23;88.50;100847.69;5088636;28;8876;-63
2021/12/20 03:39:51;;;;;;;;;0.00;0.00;;;;;6.22;88.50;100857.38;5087784;28;8951;-63
2021/12/20 03:42:19;;;;;;;;;1.00;1.00;;;;;6.23;88.61;100850.31;5088585;28;8852;-63
2021/12/20 03:44:47;;;;;;;;;1.00;1.00;;;;;6.23;88.13;100855.63;5089147;28;8853;-63
2021/12/20 03:47:15;;;;;;;;;0.00;0.00;;;;;6.21;88.68;100860.97;5089914;28;8833;-63
2021/12/20 03:49:42;;;;;;;;;0.60;0.00;;;;;6.21;88.62;100854.84;5088843;28;9557;-63
2021/12/20 03:52:10;;;;;;;;;0.00;0.00;;;;;6.20;88.50;100856.63;5089914;28;9102;-63
2021/12/20 03:54:38;;;;;;;;;0.20;0.20;;;;;6.22;88.58;100848.63;5089155;28;8860;-63
2021/12/20 03:57:06;;;;;;;;;0.60;0.00;;;;;6.22;88.44;100856.56;5086424;28;8958;-63
2021/12/20 03:59:33;;;;;;;;;1.00;1.00;;;;;6.21;88.99;100863.63;5089165;28;8849;-63
2021/12/20 04:02:01;;;;;;;;;0.00;0.00;;;;;6.22;88.49;100859.19;5088279;28;8871;-63
2021/12/20 04:04:29;;;;;;;;;4.00;1.00;;;;;6.21;88.46;100853.03;5089086;28;8926;-63
2021/12/20 04:06:56;;;;;;;;;0.40;0.00;;;;;6.20;88.47;100861.91;5090165;28;8869;-63
2021/12/20 04:09:24;;;;;;;;;1.40;1.40;;;;;6.21;88.55;100852.19;5088507;28;8883;-64
2021/12/20 04:11:52;;;;;;;;;0.00;0.00;;;;;6.21;88.38;100862.78;5088272;28;9086;-63
2021/12/20 04:14:20;;;;;;;;;3.00;3.00;;;;;6.20;88.75;100855.75;5089537;28;8979;-63
2021/12/20 04:16:48;;;;;;;;;0.50;0.50;;;;;6.18;89.04;100863.78;5089132;28;8980;-63
2021/12/20 04:19:16;;;;;;;;;0.00;0.00;;;;;6.17;88.44;100855.91;5089222;28;9541;-63
2021/12/20 04:21:44;;;;;;;;;1.00;1.00;;;;;6.16;88.36;100854.19;5089744;28;8865;-63
2021/12/20 04:24:11;;;;;;;;;0.80;0.40;;;;;6.14;88.60;100861.34;5088935;28;9507;-63
2021/12/20 04:26:39;;;;;;;;;3.00;3.00;;;;;6.14;88.68;100862.19;5091069;28;8864;-63
2021/12/20 04:29:07;;;;;;;;;0.00;0.00;;;;;6.14;88.40;100862.19;5092313;28;9116;-63
2021/12/20 04:31:35;;;;;;;;;0.00;0.00;;;;;6.12;88.72;100857.88;5093155;28;8841;-64
2021/12/20 04:34:03;;;;;;;;;1.00;1.00;;;;;6.12;88.92;100863.19;5090381;28;8840;-63
2021/12/20 04:36:33;;;;;;;;;1.00;0.00;;;;;6.08;88.19;100865.09;5093029;28;8872;-63
2021/12/20 04:39:01;;;;;;;;;1.00;0.00;;;;;6.03;88.44;100864.50;5092674;28;8851;-63
2021/12/20 04:41:30;;;;;;;;;1.00;0.00;;;;;5.92;88.21;100860.63;5092134;28;8833;-63
2021/12/20 04:43:58;;;;;;;;;0.20;0.20;;;;;5.81;88.37;100873.44;5092580;28;8853;-63
2021/12/20 04:46:25;;;;;;;;;0.00;0.00;;;;;5.66;88.61;100869.69;5092587;28;8848;-63
2021/12/20 04:48:53;;;;;;;;;0.00;0.00;;;;;5.53;88.98;100872.97;5091299;28;8883;-63
2021/12/20 04:51:21;;;;;;;;;0.20;0.20;;;;;5.39;88.56;100872.72;5092504;28;8833;-63
2021/12/20 04:53:49;;;;;;;;;0.00;0.00;;;;;5.24;89.28;100876.00;5091321;28;9117;-63
2021/12/20 04:56:16;;;;;;;;;0.00;0.00;;;;;5.13;89.19;100878.22;5090010;28;8864;-63
2021/12/20 04:58:44;;;;;;;;;0.00;0.00;;;;;5.00;88.79;100875.25;5090670;28;8840;-63
2021/12/20 05:01:12;;;;;;;;;1.80;0.80;;;;;4.90;88.93;100873.06;5090044;28;8849;-63
2021/12/20 05:03:39;;;;;;;;;0.00;0.00;;;;;4.79;89.03;100880.59;5090087;28;8857;-63
2021/12/20 05:06:07;;;;;;;;;0.00;0.00;;;;;4.68;88.75;100877.50;5091123;28;8873;-63
2021/12/20 05:08:45;;;;;;;;;0.40;0.40;;;;;4.59;88.89;100880.53;5091103;28;8995;-63
2021/12/20 05:11:13;;;;;;;;;0.00;0.00;;;;;4.48;89.27;100885.38;5091046;28;8856;-63
2021/12/20 05:13:41;;;;;;;;;0.00;0.00;;;;;4.39;89.12;100888.38;5091611;28;8883;-63
2021/12/20 05:16:08;;;;;;;;;0.40;0.40;;;;;4.31;89.38;100885.16;5090482;28;8841;-63
2021/12/20 05:18:36;;;;;;;;;0.00;0.00;;;;;4.22;89.57;100891.69;5091333;28;8938;-63
2021/12/20 05:21:04;;;;;;;;;2.20;1.00;;;;;4.14;89.17;100884.97;5089788;28;8857;-63
2021/12/20 05:23:32;;;;;;;;;2.60;2.60;;;;;4.08;89.07;100891.34;5090585;28;8845;-63
2021/12/20 05:26:00;;;;;;;;;0.00;0.00;;;;;4.03;88.99;100895.09;5089346;28;8882;-63
2021/12/20 05:28:28;;;;;;;;;0.00;0.00;;;;;4.00;90.02;100889.91;5090768;28;8872;-63
2021/12/20 05:30:55;;;;;;;;;1.00;1.00;;;;;4.01;90.23;100894.25;5090480;28;8853;-63
2021/12/20 05:33:23;;;;;;;;;2.20;2.20;;;;;4.10;90.84;100897.41;5089182;28;8852;-63
2021/12/20 05:35:51;;;;;;;;;3.00;3.00;;;;;4.21;90.44;100887.34;5089702;28;8861;-63
2021/12/20 05:38:30;;;;;;;;;1.00;1.00;;;;;4.33;90.54;100904.44;5090182;28;8841;-63
2021/12/20 05:40:57;;;;;;;;;4.20;3.00;;;;;4.44;90.84;100907.50;5089969;28;8919;-63
2021/12/20 05:43:25;;;;;;;;;3.40;3.20;;;;;4.53;90.74;100907.13;5091538;28;8933;-63
2021/12/20 05:45:53;;;;;;;;;2.60;2.60;;;;;4.58;90.54;100908.66;5091829;28;8852;-63
2021/12/20 05:48:21;;;;;;;;;1.40;1.40;;;;;4.62;90.41;100906.75;5091034;28;8864;-63
2021/12/20 05:50:48;;;;;;;;;0.80;0.80;;;;;4.66;90.83;100916.28;5089633;28;9142;-64
2021/12/20 05:53:16;;;;;;;;;1.80;1.00;;;;;4.70;90.34;100917.88;5089378;28;8979;-63
2021/12/20 05:55:44;;;;;;;;;0.60;0.20;;;;;4.73;90.34;100925.69;5088898;28;8853;-63
2021/12/20 05:58:12;;;;;;;;;3.40;3.40;;;;;4.76;90.21;100918.50;5087687;28;8861;-64
2021/12/20 06:00:39;;;;;;;;;0.20;0.20;;;;;4.76;89.71;100925.53;5087791;28;8864;-63
2021/12/20 06:03:07;;;;;;;;;1.00;1.00;;;;;4.74;90.24;100917.72;5088781;28;8942;-63
2021/12/20 06:05:35;;;;;;;;;3.60;3.60;;;;;4.71;90.12;100919.59;5089090;28;8868;-63
2021/12/20 06:08:03;;;;;;;;;4.00;3.60;;;;;4.66;89.31;100929.47;5087195;28;8867;-63
2021/12/20 06:10:30;;;;;;;;;5.00;5.00;;;;;4.59;90.11;100928.88;5088455;28;8891;-63
2021/12/20 06:12:58;;;;;;;;;3.40;3.20;;;;;4.54;89.30;100930.81;5087951;28;8959;-63
2021/12/20 06:15:26;;;;;;;;;3.40;1.00;;;;;4.51;89.45;100938.00;5085832;28;8984;-63
2021/12/20 06:17:53;;;;;;;;;0.00;0.00;;;;;4.48;89.91;100924.94;5084501;28;8849;-63
2021/12/20 06:20:21;;;;;;;;;3.00;2.20;;;;;4.43;89.78;100932.16;5084765;28;8883;-63
2021/12/20 06:22:49;;;;;;;;;0.60;0.60;;;;;4.37;89.61;100932.38;5086009;28;8896;-63
2021/12/20 06:25:17;;;;;;;;;3.00;3.00;;;;;4.30;89.70;100934.41;5085761;28;8869;-63
2021/12/20 06:27:47;;;;;;;;;2.60;1.80;;;;;4.20;89.72;100942.72;5086173;28;9623;-63
2021/12/20 06:30:15;;;;;;;;;1.00;0.00;;;;;4.10;89.43;100944.00;5085262;28;8849;-63
2021/12/20 06:32:42;;;;;;;;;0.00;0.00;;;;;4.00;89.44;100942.59;5084829;28;9136;-63
2021/12/20 06:35:30;;;;;;;;;3.60;1.40;;;;;3.88;89.43;100938.66;5082911;28;8872;-63
2021/12/20 06:38:03;;;;;;;;;0.00;0.00;;;;;3.79;89.33;100948.66;5084258;28;8873;-63
2021/12/20 06:40:30;;;;;;;;;1.00;1.00;;;;;3.70;88.79;100953.41;5083612;28;9164;-63
2021/12/20 06:42:58;;;;;;;;;0.20;0.20;;;;;3.60;89.13;100947.59;5083876;28;8856;-63
2021/12/20 06:45:26;;;;;;;;;1.00;0.00;;;;;3.52;88.80;100959.31;5082693;28;8865;-63
2021/12/20 06:47:53;;;;;;;;;5.80;3.20;;;;;3.45;89.53;100957.78;5081353;28;8971;-63
2021/12/20 06:50:21;;;;;;;;;0.80;0.80;;;;;3.38;89.74;100957.16;5081050;28;8868;-63
2021/12/20 06:52:49;;;;;;;;;0.20;0.20;;;;;3.31;88.82;100955.66;5082911;28;8864;-63
2021/12/20 06:55:17;;;;;;;;;0.00;0.00;;;;;3.25;89.17;100955.84;5080923;28;9142;-63
2021/12/20 06:57:44;;;;;;;;;3.20;1.80;;;;;3.18;89.67;100956.97;5081835;28;8875;-63
2021/12/20 07:00:12;;;;;;;;;0.00;0.00;;;;;3.12;89.34;100953.69;5078569;28;8853;-63
2021/12/20 07:02:40;;;;;;;;;0.00;0.00;;;;;3.09;89.29;100956.44;5080331;28;8863;-63
2021/12/20 07:05:08;;;;;;;;;3.00;2.20;;;;;3.03;89.72;100954.84;5079224;28;8903;-63
2021/12/20 07:07:36;;;;;;;;;0.00;0.00;;;;;3.01;89.84;100971.56;5077827;28;9498;-63
2021/12/20 07:10:04;;;;;;;;;0.00;0.00;;;;;3.01;89.90;100967.19;5080302;28;8857;-63
2021/12/20 07:12:33;;;;;;;;;0.60;0.60;;;;;2.98;89.68;100971.69;5081729;28;8871;-63
2021/12/20 07:15:01;;;;;;;;;0.00;0.00;;;;;2.94;89.41;100970.94;5083090;28;8856;-63
2021/12/20 07:17:30;;;;;;;;;0.40;0.40;;;;;2.90;89.72;100976.34;5082548;28;8860;-63
2021/12/20 07:19:58;;;;;;;;;0.80;0.80;;;;;2.85;89.91;100970.34;5083363;28;8885;-63
2021/12/20 07:22:25;;;;;;;;;1.80;1.80;;;;;2.79;89.78;100973.19;5080153;28;9552;-63
2021/12/20 07:24:53;;;;;;;;;0.40;0.40;;;;;2.74;89.69;100978.56;5079221;28;8860;-63
2021/12/20 07:27:21;;;;;;;;;2.20;2.20;;;;;2.69;90.02;100988.41;5082407;28;8890;-64
2021/12/20 07:29:48;;;;;;;;;0.00;0.00;;;;;2.65;90.06;100988.53;5077596;28;8857;-63
2021/12/20 07:32:16;;;;;;;;;1.00;1.00;;;;;2.60;89.89;100979.94;5079920;28;9725;-63
2021/12/20 07:34:44;;;;;;;;;1.80;1.80;;;;;2.58;89.64;100987.00;5078817;28;8861;-63
2021/12/20 07:37:12;;;;;;;;;0.40;0.40;;;;;2.56;89.95;100989.69;5080913;28;8965;-63
2021/12/20 07:39:40;;;;;;;;;5.60;4.00;;;;;2.54;90.57;100980.09;5077132;28;8865;-63
2021/12/20 07:42:07;;;;;;;;;0.80;0.80;;;;;2.51;90.32;100982.84;5075618;28;8887;-63
2021/12/20 07:44:35;;;;;;;;;0.40;0.40;;;;;2.49;90.26;100982.88;5079767;28;8849;-63
2021/12/20 07:47:03;;;;;;;;;0.60;0.40;;;;;2.48;90.41;100986.41;5080076;28;8945;-64
2021/12/20 07:49:33;;;;;;;;;3.00;1.00;;;;;2.47;90.29;100991.72;5078641;28;8856;-63
2021/12/20 07:52:01;;;;;;;;;0.00;0.00;;;;;2.45;90.04;100993.53;5080049;28;8871;-64
2021/12/20 07:54:31;;;;;;;;;0.80;0.80;;;;;2.43;90.67;100996.19;5078694;28;8898;-64
2021/12/20 07:56:58;;;;;;;;;3.00;0.80;;;;;2.41;90.41;100991.91;5079147;28;8860;-63
2021/12/20 07:59:26;;;;;;;;;2.60;1.00;;;;;2.39;90.58;100997.22;5077689;28;8861;-63
2021/12/20 08:01:54;;;;;;;;;2.60;1.00;;;;;2.39;90.03;100996.34;5083579;28;8884;-63
2021/12/20 08:04:22;;;;;;;;;3.00;2.20;;;;;2.38;90.53;100999.88;5082241;28;8881;-63
2021/12/20 08:06:50;;;;;;;;;1.00;1.00;;;;;2.36;90.11;101001.69;5080863;28;9159;-64
2021/12/20 08:09:18;;;;;;;;;1.00;0.40;;;;;2.34;90.88;101008.78;5080528;28;9550;-63
2021/12/20 08:11:46;;;;;;;;;1.00;1.00;;;;;2.33;90.36;101010.53;5082059;28;8857;-63
2021/12/20 08:14:14;;;;;;;;;1.00;1.00;;;;;2.33;90.12;101000.03;5083046;28;8853;-64
2021/12/20 08:16:42;;;;;;;;;1.00;1.00;;;;;2.34;90.93;101003.53;5081582;28;9282;-64
2021/12/20 08:19:09;;;;;;;;;0.20;0.20;;;;;2.35;90.67;101006.06;5084696;28;8861;-64
2021/12/20 08:21:37;;;;;;;;;2.60;1.00;;;;;2.38;90.32;101010.38;5081662;28;8856;-64
2021/12/20 08:24:05;;;;;;;;;1.80;1.80;;;;;2.39;90.23;101012.97;5081474;28;9136;-64
2021/12/20 08:26:33;;;;;;;;;1.00;1.00;;;;;2.42;90.56;101007.63;5084231;28;8991;-64
2021/12/20 08:29:00;;;;;;;;;1.00;0.40;;;;;2.44;90.78;101020.72;5082254;28;8849;-64
2021/12/20 08:31:28;;;;;;;;;1.00;1.00;;;;;2.44;90.83;101024.19;5080847;28;9020;-64
2021/12/20 08:33:56;;;;;;;;;1.80;1.40;;;;;2.45;90.59;101022.44;5077138;28;8875;-64
2021/12/20 08:36:24;;;;;;;;;1.00;0.20;;;;;2.46;90.61;101027.66;5074622;28;9355;-63
2021/12/20 08:38:52;;;;;;;;;1.00;1.00;;;;;2.48;90.69;101028.47;5077035;28;9202;-64
2021/12/20 08:41:20;;;;;;;;;0.60;0.60;;;;;2.47;90.87;101031.13;5078894;28;8856;-64
2021/12/20 08:43:47;;;;;;;;;0.40;0.40;;;;;2.47;90.44;101034.63;5075784;28;8872;-63
2021/12/20 08:46:16;;;;;;;;;0.20;0.20;;;;;2.46;90.78;101030.28;5076182;28;8879;-63
2021/12/20 08:48:43;;;;;;;;;1.00;1.00;;;;;2.48;90.33;101035.47;5076533;28;8841;-63
2021/12/20 08:51:11;;;;;;;;;1.00;0.60;;;;;2.48;90.76;101044.25;5078024;28;8860;-63
2021/12/20 08:53:40;;;;;;;;;3.60;3.00;;;;;2.50;90.49;101050.31;5078358;28;9383;-64
2021/12/20 08:56:08;;;;;;;;;1.00;1.00;;;;;2.54;90.72;101051.94;5078464;28;9126;-64
2021/12/20 08:58:36;;;;;;;;;1.40;0.80;;;;;2.57;90.54;101049.22;5082036;28;8849;-64
2021/12/20 09:01:03;;;;;;;;;0.60;0.00;;;;;2.61;90.78;101052.63;5079036;28;8960;-63
2021/12/20 09:03:31;;;;;;;;;1.00;1.00;;;;;2.65;91.30;101049.00;5077846;28;9107;-64
2021/12/20 09:05:59;;;;;;;;;2.60;2.20;;;;;2.71;90.56;101056.69;5077533;28;8899;-64
2021/12/20 09:08:28;;;;;;;;;0.80;0.80;;;;;2.77;91.12;101057.38;5078569;28;8979;-64
2021/12/20 09:11:01;;;;;;;;;4.40;3.60;;;;;2.84;90.42;101061.56;5077805;28;8881;-64
2021/12/20 09:13:29;;;;;;;;;2.20;1.80;;;;;2.90;90.60;101058.75;5079439;28;8908;-64
2021/12/20 09:15:59;;;;;;;;;3.60;3.00;;;;;2.96;90.75;101074.31;5079515;28;9534;-63
2021/12/20 09:18:27;;;;;;;;;5.00;3.60;;;;;3.03;91.01;101070.59;5078159;28;8852;-63
2021/12/20 09:20:55;;;;;;;;;3.00;1.80;;;;;3.08;91.16;101068.69;5077265;28;9167;-63
2021/12/20 09:23:26;;;;;;;;;1.00;1.00;;;;;3.15;91.09;101069.34;5079679;28;8887;-64
2021/12/20 09:25:55;;;;;;;;;5.20;5.20;;;;;3.22;90.33;101076.13;5075931;28;8864;-63
2021/12/20 09:28:23;;;;;;;;;3.80;3.80;;;;;3.29;90.88;101069.75;5071287;28;9144;-64
2021/12/20 09:30:51;;;;;;;;;6.80;6.60;;;;;3.36;90.38;101074.81;5070044;28;8937;-63
2021/12/20 09:33:18;;;;;;;;;0.40;0.40;;;;;3.46;90.36;101081.47;5073834;28;9136;-63
2021/12/20 09:35:46;;;;;;;;;5.60;4.00;;;;;3.53;90.11;101085.63;5078864;28;8864;-62
2021/12/20 09:38:17;;;;;;;;;2.20;2.20;;;;;3.64;90.13;101080.84;5077906;28;8991;-62
2021/12/20 09:41:02;;;;;;;;;1.00;1.00;;;;;3.77;90.34;101070.81;5078104;28;8868;-63
2021/12/20 09:43:29;;;;;;;;;5.60;4.00;;;;;3.89;90.50;101076.50;5077662;28;8889;-63
2021/12/20 09:45:57;;;;;;;;;3.60;3.20;;;;;4.03;90.45;101076.88;5077354;28;9228;-63
2021/12/20 09:48:25;;;;;;;;;3.00;3.00;;;;;4.13;89.97;101079.13;5077270;28;9118;-63
2021/12/20 09:50:53;;;;;;;;;3.00;3.00;;;;;4.30;89.54;101070.63;5075004;28;8868;-63
2021/12/20 09:53:21;;;;;;;;;1.00;1.00;;;;;4.64;89.36;101069.31;5074809;28;8852;-63
2021/12/20 09:55:49;;;;;;;;;1.00;0.40;;;;;5.22;88.34;101071.44;5071851;28;8983;-63
2021/12/20 09:58:16;;;;;;;;;3.60;3.00;;;;;5.93;86.68;101066.69;5071617;28;8899;-63
2021/12/20 10:00:44;;;;;;;;;3.00;3.00;;;;;6.63;85.42;101059.16;5073602;28;8989;-63
2021/12/20 10:03:13;;;;;;;;;3.60;3.60;;;;;7.29;84.50;101058.63;5073572;28;8848;-63
2021/12/20 10:05:41;;;;;;;;;4.00;2.80;;;;;7.90;83.12;101053.72;5075794;28;8873;-63
2021/12/20 10:08:14;;;;;;;;;4.00;4.00;;;;;8.41;82.40;101045.75;5071355;28;8853;-63
2021/12/20 10:10:42;;;;;;;;;3.00;3.00;;;;;8.80;81.97;101045.41;5077242;28;8879;-64
2021/12/20 10:13:10;;;;;;;;;3.00;3.00;;;;;9.27;81.58;101047.09;5077321;28;9182;-63
2021/12/20 10:15:38;;;;;;;;;5.00;4.00;;;;;9.77;80.65;101039.72;5075920;28;8904;-64
2021/12/20 10:18:06;;;;;;;;;6.50;5.00;;;;;10.34;79.43;101046.06;5075361;28;8999;-65
2021/12/20 10:20:33;;;;;;;;;3.00;3.00;;;;;10.85;78.17;101037.50;5072144;28;8938;-65
2021/12/20 10:23:01;;;;;;;;;5.75;5.75;;;;;11.02;77.96;101038.16;5076923;28;8853;-65
2021/12/20 10:25:29;;;;;;;;;3.00;3.00;;;;;11.08;78.13;101039.56;5073843;28;9577;-64
2021/12/20 10:27:57;;;;;;;;;4.00;4.00;;;;;10.85;78.63;101027.69;5071288;28;8867;-64
2021/12/20 10:30:24;;;;;;;;;4.67;4.67;;;;;10.72;78.96;101036.56;5072552;28;8945;-65
2021/12/20 10:32:52;;;;;;;;;4.00;4.00;;;;;10.94;78.75;101039.59;5073855;28;8853;-64
2021/12/20 10:35:20;;;;;;;;;5.50;5.00;;;;;11.25;78.18;101042.00;5074277;28;8896;-64
2021/12/20 10:37:47;;;;;;;;;5.50;4.50;;;;;11.48;77.97;101033.34;5072854;28;8877;-64
2021/12/20 10:40:15;;;;;;;;;9.75;6.75;;;;;11.48;77.96;101030.69;5073510;28;8853;-64
2021/12/20 10:42:43;;;;;;;;;6.00;4.00;;;;;11.57;78.38;101028.25;5073670;28;8879;-64
2021/12/20 10:45:11;;;;;;;;;5.25;5.25;;;;;11.94;77.17;101039.06;5076999;28;8853;-64
2021/12/20 10:47:39;;;;;;;;;2.00;2.00;;;;;12.49;76.93;101030.78;5076856;28;8856;-64
2021/12/20 10:50:07;;;;;;;;;3.75;3.75;;;;;13.08;75.28;101027.41;5078181;28;8891;-64
2021/12/20 10:52:36;;;;;;;;;4.00;4.00;;;;;13.61;74.55;101024.31;5072076;28;9522;-64
2021/12/20 10:55:04;;;;;;;;;6.25;6.00;;;;;13.89;73.67;101031.97;5074988;28;8933;-64
2021/12/20 10:57:32;;;;;;;;;3.00;3.00;;;;;14.07;73.90;101030.56;5077369;28;9103;-64
2021/12/20 11:00:00;;;;;;;;;4.00;4.00;;;;;13.90;74.49;101031.84;5077929;28;8853;-63
2021/12/20 11:03:11;;;;;;;;;6.25;3.25;;;;;13.79;74.65;101028.25;5071178;28;9011;-63
2021/12/20 11:05:39;;;;;;;;;4.00;4.00;;;;;13.98;74.16;101025.91;5070618;28;9726;-63
2021/12/20 11:10:58;;;;;;;;;3.50;3.00;;;;;14.56;72.82;101021.31;5052593;28;9182;-63
2021/12/20 11:13:26;;;;;;;;;4.50;4.50;;;;;14.78;72.13;101017.75;5073428;28;8878;-63
2021/12/20 11:15:53;;;;;;;;;4.00;4.00;;;;;15.01;72.21;101023.00;5074691;28;9195;-64
2021/12/20 11:18:21;;;;;;;;;6.50;6.25;;;;;15.03;72.06;101020.22;5071025;28;9745;-64
2021/12/20 11:20:49;;;;;;;;;4.50;4.50;;;;;14.93;73.63;101030.81;5071868;28;8883;-63
2021/12/20 11:23:17;;;;;;;;;4.50;4.00;;;;;14.85;73.07;101021.66;5070639;28;8861;-64
2021/12/20 11:25:45;;;;;;;;;3.00;2.50;;;;;14.85;73.32;101021.66;5072651;28;8845;-64
2021/12/20 11:28:12;;;;;;;;;0.75;0.00;;;;;14.92;72.65;101020.19;5068299;28;8869;-64
2021/12/20 11:30:40;;;;;;;;;5.00;5.00;;;;;14.89;72.82;101010.59;5071424;28;9094;-64
2021/12/20 11:33:08;;;;;;;;;3.50;3.00;;;;;14.80;73.15;101010.47;5072873;28;8941;-64
2021/12/20 11:35:36;;;;;;;;;4.00;4.00;;;;;14.75;72.94;101013.53;5074130;28;9111;-64
2021/12/20 11:38:03;;;;;;;;;3.75;3.00;;;;;14.81;73.19;101010.31;5073137;28;8865;-63
2021/12/20 11:40:31;;;;;;;;;6.00;4.00;;;;;14.91;72.35;101010.44;5077365;28;8942;-64
2021/12/20 11:42:59;;;;;;;;;5.00;4.25;;;;;14.91;72.87;101013.13;5081467;28;8853;-64
2021/12/20 11:45:27;;;;;;;;;4.00;3.00;;;;;14.62;73.69;101017.28;5080370;28;8863;-64
2021/12/20 11:47:57;;;;;;;;;4.00;4.00;;;;;14.29;75.06;101017.25;5078328;28;8927;-63
2021/12/20 11:50:25;;;;;;;;;1.00;1.00;;;;;13.99;75.63;101019.59;5077024;28;9146;-64
2021/12/20 11:52:53;;;;;;;;;3.00;3.00;;;;;13.67;75.60;101013.16;5077948;28;9242;-63
2021/12/20 11:55:21;;;;;;;;;3.00;3.00;;;;;13.33;76.85;101008.59;5076623;28;8860;-63
2021/12/20 11:57:50;;;;;;;;;3.00;3.00;;;;;13.09;76.79;101011.25;5078525;28;8852;-63